sensor_id;sensor_type;location;lat;lon;timestamp;P1;durP1;ratioP1;P2;durP2;ratioP2
58685;SDS011;44465;53.206;-6.106;2023-04-06T00:00:52;1.92;;;1.15;;
58685;SDS011;44465;53.206;-6.106;2023-04-06T00:03:18;2.38;;;1.25;;
58685;SDS011;44465;53.206;-6.106;2023-04-06T00:05:44;1.70;;;1.20;;
58685;SDS011;44465;53.206;-6.106;2023-04-06T00:08:09;2.30;;;1.45;;
58685;SDS011;44465;53.206;-6.106;2023-04-06T00:10:35;1.13;;;1.05;;
58685;SDS011;44465;53.206;-6.106;2023-04-06T00:13:01;1.63;;;1.10;;
58685;SDS011;44465;53.206;-6.106;2023-04-06T00:15:27;1.73;;;1.20;;
58685;SDS011;44465;53.206;-6.106;2023-04-06T00:17:52;2.95;;;1.05;;
58685;SDS011;44465;53.206;-6.106;2023-04-06T00:20:18;1.67;;;1.20;;
58685;SDS011;44465;53.206;-6.106;2023-04-06T00:22:44;1.40;;;1.02;;
58685;SDS011;44465;53.206;-6.106;2023-04-06T00:25:09;2.75;;;1.00;;
58685;SDS011;44465;53.206;-6.106;2023-04-06T00:27:36;1.13;;;1.00;;
58685;SDS011;44465;53.206;-6.106;2023-04-06T00:30:03;1.50;;;1.15;;
58685;SDS011;44465;53.206;-6.106;2023-04-06T00:32:30;1.85;;;0.85;;
58685;SDS011;44465;53.206;-6.106;2023-04-06T00:34:56;0.80;;;0.73;;
58685;SDS011;44465;53.206;-6.106;2023-04-06T00:37:22;1.58;;;0.88;;
58685;SDS011;44465;53.206;-6.106;2023-04-06T00:39:47;2.20;;;1.00;;
58685;SDS011;44465;53.206;-6.106;2023-04-06T00:42:13;1.30;;;0.90;;
58685;SDS011;44465;53.206;-6.106;2023-04-06T00:44:40;1.98;;;1.05;;
58685;SDS011;44465;53.206;-6.106;2023-04-06T00:47:06;1.27;;;1.05;;
58685;SDS011;44465;53.206;-6.106;2023-04-06T00:49:32;1.00;;;0.90;;
58685;SDS011;44465;53.206;-6.106;2023-04-06T00:51:58;2.72;;;1.45;;
58685;SDS011;44465;53.206;-6.106;2023-04-06T00:54:23;1.02;;;0.93;;
58685;SDS011;44465;53.206;-6.106;2023-04-06T00:56:50;2.67;;;1.02;;
58685;SDS011;44465;53.206;-6.106;2023-04-06T00:59:15;0.82;;;0.82;;
58685;SDS011;44465;53.206;-6.106;2023-04-06T01:01:41;1.88;;;1.00;;
58685;SDS011;44465;53.206;-6.106;2023-04-06T01:04:22;1.83;;;1.10;;
58685;SDS011;44465;53.206;-6.106;2023-04-06T01:06:48;2.15;;;1.25;;
58685;SDS011;44465;53.206;-6.106;2023-04-06T01:09:15;1.95;;;1.00;;
58685;SDS011;44465;53.206;-6.106;2023-04-06T01:11:42;1.23;;;1.00;;
58685;SDS011;44465;53.206;-6.106;2023-04-06T01:14:11;0.85;;;0.63;;
58685;SDS011;44465;53.206;-6.106;2023-04-06T01:16:49;0.73;;;0.70;;
58685;SDS011;44465;53.206;-6.106;2023-04-06T01:19:18;1.17;;;0.88;;
58685;SDS011;44465;53.206;-6.106;2023-04-06T01:21:47;1.17;;;1.00;;
58685;SDS011;44465;53.206;-6.106;2023-04-06T01:24:35;1.33;;;1.02;;
58685;SDS011;44465;53.206;-6.106;2023-04-06T01:27:06;1.48;;;1.10;;
58685;SDS011;44465;53.206;-6.106;2023-04-06T01:29:55;1.50;;;0.90;;
58685;SDS011;44465;53.206;-6.106;2023-04-06T01:32:34;2.42;;;1.17;;
58685;SDS011;44465;53.206;-6.106;2023-04-06T01:35:00;3.28;;;1.20;;
58685;SDS011;44465;53.206;-6.106;2023-04-06T01:37:26;1.10;;;0.93;;
58685;SDS011;44465;53.206;-6.106;2023-04-06T01:39:54;2.20;;;1.00;;
58685;SDS011;44465;53.206;-6.106;2023-04-06T01:42:34;1.10;;;0.90;;
58685;SDS011;44465;53.206;-6.106;2023-04-06T01:44:59;1.60;;;1.10;;
58685;SDS011;44465;53.206;-6.106;2023-04-06T01:47:25;1.25;;;0.90;;
58685;SDS011;44465;53.206;-6.106;2023-04-06T01:49:51;1.75;;;1.15;;
58685;SDS011;44465;53.206;-6.106;2023-04-06T01:52:17;2.15;;;1.05;;
58685;SDS011;44465;53.206;-6.106;2023-04-06T01:54:49;1.92;;;0.95;;
58685;SDS011;44465;53.206;-6.106;2023-04-06T01:57:35;1.80;;;1.20;;
58685;SDS011;44465;53.206;-6.106;2023-04-06T02:00:10;2.03;;;1.00;;
58685;SDS011;44465;53.206;-6.106;2023-04-06T02:02:39;0.70;;;0.63;;
58685;SDS011;44465;53.206;-6.106;2023-04-06T02:05:09;2.67;;;0.90;;
58685;SDS011;44465;53.206;-6.106;2023-04-06T02:07:36;1.55;;;0.90;;
58685;SDS011;44465;53.206;-6.106;2023-04-06T02:10:02;1.48;;;0.70;;
58685;SDS011;44465;53.206;-6.106;2023-04-06T02:12:35;1.25;;;0.90;;
58685;SDS011;44465;53.206;-6.106;2023-04-06T02:15:01;1.58;;;0.93;;
58685;SDS011;44465;53.206;-6.106;2023-04-06T02:17:26;1.10;;;1.00;;
58685;SDS011;44465;53.206;-6.106;2023-04-06T02:19:52;1.85;;;1.00;;
58685;SDS011;44465;53.206;-6.106;2023-04-06T02:22:17;1.30;;;1.10;;
58685;SDS011;44465;53.206;-6.106;2023-04-06T02:24:43;1.35;;;0.90;;
58685;SDS011;44465;53.206;-6.106;2023-04-06T02:27:09;1.92;;;0.93;;
58685;SDS011;44465;53.206;-6.106;2023-04-06T02:29:35;1.25;;;0.57;;
58685;SDS011;44465;53.206;-6.106;2023-04-06T02:32:02;1.30;;;0.85;;
58685;SDS011;44465;53.206;-6.106;2023-04-06T02:34:30;2.58;;;1.27;;
58685;SDS011;44465;53.206;-6.106;2023-04-06T02:36:56;1.83;;;1.00;;
58685;SDS011;44465;53.206;-6.106;2023-04-06T02:39:21;1.65;;;0.98;;
58685;SDS011;44465;53.206;-6.106;2023-04-06T02:41:48;1.25;;;1.15;;
58685;SDS011;44465;53.206;-6.106;2023-04-06T02:44:18;1.40;;;1.17;;
58685;SDS011;44465;53.206;-6.106;2023-04-06T02:46:43;1.92;;;1.17;;
58685;SDS011;44465;53.206;-6.106;2023-04-06T02:49:09;3.88;;;1.42;;
58685;SDS011;44465;53.206;-6.106;2023-04-06T02:51:35;1.48;;;1.02;;
58685;SDS011;44465;53.206;-6.106;2023-04-06T02:54:23;1.85;;;0.85;;
58685;SDS011;44465;53.206;-6.106;2023-04-06T02:56:49;1.40;;;1.20;;
58685;SDS011;44465;53.206;-6.106;2023-04-06T02:59:15;2.15;;;0.90;;
58685;SDS011;44465;53.206;-6.106;2023-04-06T03:01:47;0.85;;;0.73;;
58685;SDS011;44465;53.206;-6.106;2023-04-06T03:04:12;1.02;;;0.98;;
58685;SDS011;44465;53.206;-6.106;2023-04-06T03:06:38;2.28;;;1.27;;
58685;SDS011;44465;53.206;-6.106;2023-04-06T03:09:14;1.35;;;0.90;;
58685;SDS011;44465;53.206;-6.106;2023-04-06T03:11:42;2.25;;;1.30;;
58685;SDS011;44465;53.206;-6.106;2023-04-06T03:14:07;1.40;;;1.10;;
58685;SDS011;44465;53.206;-6.106;2023-04-06T03:16:33;1.30;;;1.00;;
58685;SDS011;44465;53.206;-6.106;2023-04-06T03:19:00;2.90;;;1.00;;
58685;SDS011;44465;53.206;-6.106;2023-04-06T03:21:26;2.35;;;1.23;;
58685;SDS011;44465;53.206;-6.106;2023-04-06T03:23:52;1.23;;;1.13;;
58685;SDS011;44465;53.206;-6.106;2023-04-06T03:26:18;1.75;;;1.20;;
58685;SDS011;44465;53.206;-6.106;2023-04-06T03:28:44;1.67;;;1.50;;
58685;SDS011;44465;53.206;-6.106;2023-04-06T03:31:09;1.80;;;1.35;;
58685;SDS011;44465;53.206;-6.106;2023-04-06T03:33:58;2.35;;;1.40;;
58685;SDS011;44465;53.206;-6.106;2023-04-06T03:36:29;0.95;;;0.90;;
58685;SDS011;44465;53.206;-6.106;2023-04-06T03:38:56;2.33;;;1.10;;
58685;SDS011;44465;53.206;-6.106;2023-04-06T03:41:22;1.48;;;1.30;;
58685;SDS011;44465;53.206;-6.106;2023-04-06T03:43:59;1.42;;;1.33;;
58685;SDS011;44465;53.206;-6.106;2023-04-06T03:46:25;2.45;;;1.48;;
58685;SDS011;44465;53.206;-6.106;2023-04-06T03:48:53;1.80;;;1.50;;
58685;SDS011;44465;53.206;-6.106;2023-04-06T03:51:21;2.10;;;1.52;;
58685;SDS011;44465;53.206;-6.106;2023-04-06T03:53:47;2.05;;;1.55;;
58685;SDS011;44465;53.206;-6.106;2023-04-06T03:56:12;1.58;;;1.42;;
58685;SDS011;44465;53.206;-6.106;2023-04-06T03:58:38;2.92;;;1.35;;
58685;SDS011;44465;53.206;-6.106;2023-04-06T04:01:03;1.65;;;1.50;;
58685;SDS011;44465;53.206;-6.106;2023-04-06T04:03:29;1.15;;;1.05;;
58685;SDS011;44465;53.206;-6.106;2023-04-06T04:05:55;1.30;;;1.15;;
58685;SDS011;44465;53.206;-6.106;2023-04-06T04:08:21;2.40;;;1.77;;
58685;SDS011;44465;53.206;-6.106;2023-04-06T04:10:47;1.88;;;1.60;;
58685;SDS011;44465;53.206;-6.106;2023-04-06T04:13:12;2.10;;;1.17;;
58685;SDS011;44465;53.206;-6.106;2023-04-06T04:15:39;1.77;;;1.10;;
58685;SDS011;44465;53.206;-6.106;2023-04-06T04:18:05;4.10;;;1.48;;
58685;SDS011;44465;53.206;-6.106;2023-04-06T04:20:31;2.17;;;1.33;;
58685;SDS011;44465;53.206;-6.106;2023-04-06T04:22:57;1.90;;;1.33;;
58685;SDS011;44465;53.206;-6.106;2023-04-06T04:25:22;3.38;;;1.42;;
58685;SDS011;44465;53.206;-6.106;2023-04-06T04:27:48;2.22;;;1.40;;
58685;SDS011;44465;53.206;-6.106;2023-04-06T04:30:15;2.80;;;1.37;;
58685;SDS011;44465;53.206;-6.106;2023-04-06T04:32:41;2.33;;;1.45;;
58685;SDS011;44465;53.206;-6.106;2023-04-06T04:35:08;2.53;;;1.38;;
58685;SDS011;44465;53.206;-6.106;2023-04-06T04:37:38;3.08;;;1.63;;
58685;SDS011;44465;53.206;-6.106;2023-04-06T04:40:03;1.90;;;1.20;;
58685;SDS011;44465;53.206;-6.106;2023-04-06T04:42:37;1.92;;;1.20;;
58685;SDS011;44465;53.206;-6.106;2023-04-06T04:45:05;1.10;;;1.00;;
58685;SDS011;44465;53.206;-6.106;2023-04-06T04:47:38;3.03;;;1.13;;
58685;SDS011;44465;53.206;-6.106;2023-04-06T04:50:05;1.70;;;1.45;;
58685;SDS011;44465;53.206;-6.106;2023-04-06T04:52:31;3.30;;;1.45;;
58685;SDS011;44465;53.206;-6.106;2023-04-06T04:55:11;2.47;;;1.40;;
58685;SDS011;44465;53.206;-6.106;2023-04-06T04:57:36;2.97;;;1.40;;
58685;SDS011;44465;53.206;-6.106;2023-04-06T05:00:03;1.35;;;1.17;;
58685;SDS011;44465;53.206;-6.106;2023-04-06T05:02:31;1.73;;;1.23;;
58685;SDS011;44465;53.206;-6.106;2023-04-06T05:05:10;1.75;;;1.10;;
58685;SDS011;44465;53.206;-6.106;2023-04-06T05:07:37;2.13;;;1.17;;
58685;SDS011;44465;53.206;-6.106;2023-04-06T05:10:04;1.80;;;1.10;;
58685;SDS011;44465;53.206;-6.106;2023-04-06T05:12:36;1.60;;;1.25;;
58685;SDS011;44465;53.206;-6.106;2023-04-06T05:15:06;1.58;;;1.10;;
58685;SDS011;44465;53.206;-6.106;2023-04-06T05:17:32;2.42;;;1.20;;
58685;SDS011;44465;53.206;-6.106;2023-04-06T05:19:58;2.03;;;1.05;;
58685;SDS011;44465;53.206;-6.106;2023-04-06T05:22:25;3.33;;;1.30;;
58685;SDS011;44465;53.206;-6.106;2023-04-06T05:25:01;2.33;;;1.33;;
58685;SDS011;44465;53.206;-6.106;2023-04-06T05:27:29;1.75;;;1.23;;
58685;SDS011;44465;53.206;-6.106;2023-04-06T05:29:55;2.28;;;1.30;;
58685;SDS011;44465;53.206;-6.106;2023-04-06T05:32:21;1.63;;;1.20;;
58685;SDS011;44465;53.206;-6.106;2023-04-06T05:34:50;1.42;;;1.30;;
58685;SDS011;44465;53.206;-6.106;2023-04-06T05:37:15;1.75;;;1.10;;
58685;SDS011;44465;53.206;-6.106;2023-04-06T05:39:41;1.35;;;1.20;;
58685;SDS011;44465;53.206;-6.106;2023-04-06T05:42:07;2.63;;;1.15;;
58685;SDS011;44465;53.206;-6.106;2023-04-06T05:44:45;1.13;;;0.95;;
58685;SDS011;44465;53.206;-6.106;2023-04-06T05:47:13;1.55;;;1.10;;
58685;SDS011;44465;53.206;-6.106;2023-04-06T05:49:43;1.63;;;1.08;;
58685;SDS011;44465;53.206;-6.106;2023-04-06T05:52:14;1.50;;;1.00;;
58685;SDS011;44465;53.206;-6.106;2023-04-06T05:54:44;1.55;;;1.33;;
58685;SDS011;44465;53.206;-6.106;2023-04-06T05:57:09;1.67;;;1.08;;
58685;SDS011;44465;53.206;-6.106;2023-04-06T05:59:35;1.27;;;0.93;;
58685;SDS011;44465;53.206;-6.106;2023-04-06T06:02:00;1.13;;;0.93;;
58685;SDS011;44465;53.206;-6.106;2023-04-06T06:04:30;1.05;;;0.95;;
58685;SDS011;44465;53.206;-6.106;2023-04-06T06:06:56;0.90;;;0.90;;
58685;SDS011;44465;53.206;-6.106;2023-04-06T06:09:31;2.15;;;1.15;;
58685;SDS011;44465;53.206;-6.106;2023-04-06T06:12:15;1.55;;;0.80;;
58685;SDS011;44465;53.206;-6.106;2023-04-06T06:14:40;1.27;;;1.17;;
58685;SDS011;44465;53.206;-6.106;2023-04-06T06:17:06;1.33;;;0.80;;
58685;SDS011;44465;53.206;-6.106;2023-04-06T06:19:33;1.77;;;1.38;;
58685;SDS011;44465;53.206;-6.106;2023-04-06T06:22:01;1.42;;;1.17;;
58685;SDS011;44465;53.206;-6.106;2023-04-06T06:24:28;2.15;;;1.00;;
58685;SDS011;44465;53.206;-6.106;2023-04-06T06:26:54;2.28;;;1.02;;
58685;SDS011;44465;53.206;-6.106;2023-04-06T06:29:24;2.25;;;1.40;;
58685;SDS011;44465;53.206;-6.106;2023-04-06T06:31:50;2.58;;;1.10;;
58685;SDS011;44465;53.206;-6.106;2023-04-06T06:34:16;1.17;;;1.00;;
58685;SDS011;44465;53.206;-6.106;2023-04-06T06:36:42;1.92;;;1.00;;
58685;SDS011;44465;53.206;-6.106;2023-04-06T06:39:10;1.00;;;0.90;;
58685;SDS011;44465;53.206;-6.106;2023-04-06T06:41:36;1.80;;;0.90;;
58685;SDS011;44465;53.206;-6.106;2023-04-06T06:44:03;1.40;;;1.10;;
58685;SDS011;44465;53.206;-6.106;2023-04-06T06:46:28;2.15;;;1.10;;
58685;SDS011;44465;53.206;-6.106;2023-04-06T06:48:54;1.00;;;0.90;;
58685;SDS011;44465;53.206;-6.106;2023-04-06T06:51:19;1.70;;;1.17;;
58685;SDS011;44465;53.206;-6.106;2023-04-06T06:53:45;2.15;;;1.08;;
58685;SDS011;44465;53.206;-6.106;2023-04-06T06:56:10;1.05;;;1.05;;
58685;SDS011;44465;53.206;-6.106;2023-04-06T06:58:37;1.60;;;0.97;;
58685;SDS011;44465;53.206;-6.106;2023-04-06T07:01:03;0.77;;;0.75;;
58685;SDS011;44465;53.206;-6.106;2023-04-06T07:03:30;1.85;;;0.77;;
58685;SDS011;44465;53.206;-6.106;2023-04-06T07:05:56;1.70;;;1.20;;
58685;SDS011;44465;53.206;-6.106;2023-04-06T07:08:23;1.95;;;0.90;;
58685;SDS011;44465;53.206;-6.106;2023-04-06T07:10:50;1.88;;;1.20;;
58685;SDS011;44465;53.206;-6.106;2023-04-06T07:13:17;1.52;;;0.95;;
58685;SDS011;44465;53.206;-6.106;2023-04-06T07:15:48;2.05;;;1.20;;
58685;SDS011;44465;53.206;-6.106;2023-04-06T07:18:15;1.27;;;0.90;;
58685;SDS011;44465;53.206;-6.106;2023-04-06T07:20:41;1.23;;;0.90;;
58685;SDS011;44465;53.206;-6.106;2023-04-06T07:23:07;2.75;;;1.20;;
58685;SDS011;44465;53.206;-6.106;2023-04-06T07:25:32;1.80;;;1.30;;
58685;SDS011;44465;53.206;-6.106;2023-04-06T07:27:58;1.58;;;1.15;;
58685;SDS011;44465;53.206;-6.106;2023-04-06T07:30:24;0.98;;;0.98;;
58685;SDS011;44465;53.206;-6.106;2023-04-06T07:36:01;1.17;;;1.08;;
58685;SDS011;44465;53.206;-6.106;2023-04-06T07:38:26;2.40;;;1.48;;
58685;SDS011;44465;53.206;-6.106;2023-04-06T07:40:52;1.00;;;0.90;;
58685;SDS011;44465;53.206;-6.106;2023-04-06T07:43:18;1.40;;;1.08;;
58685;SDS011;44465;53.206;-6.106;2023-04-06T07:45:43;0.90;;;0.90;;
58685;SDS011;44465;53.206;-6.106;2023-04-06T07:48:09;1.73;;;1.05;;
58685;SDS011;44465;53.206;-6.106;2023-04-06T07:50:36;2.08;;;1.40;;
58685;SDS011;44465;53.206;-6.106;2023-04-06T07:53:02;1.00;;;0.90;;
58685;SDS011;44465;53.206;-6.106;2023-04-06T07:55:29;2.72;;;1.40;;
58685;SDS011;44465;53.206;-6.106;2023-04-06T07:57:54;2.58;;;1.15;;
58685;SDS011;44465;53.206;-6.106;2023-04-06T08:00:20;2.42;;;1.20;;
58685;SDS011;44465;53.206;-6.106;2023-04-06T08:02:46;2.20;;;1.25;;
58685;SDS011;44465;53.206;-6.106;2023-04-06T08:05:11;2.60;;;1.40;;
58685;SDS011;44465;53.206;-6.106;2023-04-06T08:07:37;1.20;;;1.10;;
58685;SDS011;44465;53.206;-6.106;2023-04-06T08:10:03;1.35;;;1.10;;
58685;SDS011;44465;53.206;-6.106;2023-04-06T08:12:29;1.48;;;1.10;;
58685;SDS011;44465;53.206;-6.106;2023-04-06T08:14:54;1.60;;;1.10;;
58685;SDS011;44465;53.206;-6.106;2023-04-06T08:17:40;2.47;;;1.53;;
58685;SDS011;44465;53.206;-6.106;2023-04-06T08:20:06;1.88;;;1.20;;
58685;SDS011;44465;53.206;-6.106;2023-04-06T08:22:31;1.63;;;1.38;;
58685;SDS011;44465;53.206;-6.106;2023-04-06T08:24:57;1.25;;;1.15;;
58685;SDS011;44465;53.206;-6.106;2023-04-06T08:27:22;2.35;;;1.20;;
58685;SDS011;44465;53.206;-6.106;2023-04-06T08:29:48;1.92;;;1.15;;
58685;SDS011;44465;53.206;-6.106;2023-04-06T08:32:14;1.20;;;1.10;;
58685;SDS011;44465;53.206;-6.106;2023-04-06T08:34:40;1.30;;;1.20;;
58685;SDS011;44465;53.206;-6.106;2023-04-06T08:37:06;1.45;;;0.98;;
58685;SDS011;44465;53.206;-6.106;2023-04-06T08:39:31;1.27;;;1.17;;
58685;SDS011;44465;53.206;-6.106;2023-04-06T08:41:58;1.30;;;1.20;;
58685;SDS011;44465;53.206;-6.106;2023-04-06T08:44:28;1.13;;;1.08;;
58685;SDS011;44465;53.206;-6.106;2023-04-06T08:46:57;1.55;;;0.82;;
58685;SDS011;44465;53.206;-6.106;2023-04-06T08:49:24;1.65;;;1.13;;
58685;SDS011;44465;53.206;-6.106;2023-04-06T08:51:51;1.00;;;0.90;;
58685;SDS011;44465;53.206;-6.106;2023-04-06T08:54:16;1.73;;;0.95;;
58685;SDS011;44465;53.206;-6.106;2023-04-06T08:56:42;1.88;;;1.33;;
58685;SDS011;44465;53.206;-6.106;2023-04-06T08:59:08;1.10;;;0.90;;
58685;SDS011;44465;53.206;-6.106;2023-04-06T09:01:36;0.98;;;0.77;;
58685;SDS011;44465;53.206;-6.106;2023-04-06T09:04:06;1.52;;;0.80;;
58685;SDS011;44465;53.206;-6.106;2023-04-06T09:06:35;1.20;;;1.15;;
58685;SDS011;44465;53.206;-6.106;2023-04-06T09:09:02;1.33;;;0.90;;
58685;SDS011;44465;53.206;-6.106;2023-04-06T09:11:27;0.95;;;0.75;;
58685;SDS011;44465;53.206;-6.106;2023-04-06T09:13:53;0.82;;;0.77;;
58685;SDS011;44465;53.206;-6.106;2023-04-06T09:16:21;1.42;;;1.00;;
58685;SDS011;44465;53.206;-6.106;2023-04-06T09:18:48;1.45;;;1.08;;
58685;SDS011;44465;53.206;-6.106;2023-04-06T09:21:18;1.10;;;0.98;;
58685;SDS011;44465;53.206;-6.106;2023-04-06T09:23:44;1.73;;;0.90;;
58685;SDS011;44465;53.206;-6.106;2023-04-06T09:26:11;1.50;;;0.88;;
58685;SDS011;44465;53.206;-6.106;2023-04-06T09:28:42;1.75;;;0.90;;
58685;SDS011;44465;53.206;-6.106;2023-04-06T09:31:08;0.85;;;0.75;;
58685;SDS011;44465;53.206;-6.106;2023-04-06T09:33:44;1.05;;;0.90;;
58685;SDS011;44465;53.206;-6.106;2023-04-06T09:36:11;1.88;;;1.10;;
58685;SDS011;44465;53.206;-6.106;2023-04-06T09:38:52;1.00;;;0.90;;
58685;SDS011;44465;53.206;-6.106;2023-04-06T09:41:23;1.13;;;0.70;;
58685;SDS011;44465;53.206;-6.106;2023-04-06T09:44:08;0.80;;;0.80;;
58685;SDS011;44465;53.206;-6.106;2023-04-06T09:46:36;0.90;;;0.65;;
58685;SDS011;44465;53.206;-6.106;2023-04-06T09:49:07;0.80;;;0.80;;
58685;SDS011;44465;53.206;-6.106;2023-04-06T09:51:38;1.75;;;0.80;;
58685;SDS011;44465;53.206;-6.106;2023-04-06T09:54:05;0.88;;;0.68;;
58685;SDS011;44465;53.206;-6.106;2023-04-06T10:02:03;1.80;;;0.90;;
58685;SDS011;44465;53.206;-6.106;2023-04-06T10:04:40;1.52;;;0.80;;
58685;SDS011;44465;53.206;-6.106;2023-04-06T10:07:15;0.85;;;0.80;;
58685;SDS011;44465;53.206;-6.106;2023-04-06T10:09:42;1.75;;;1.00;;
58685;SDS011;44465;53.206;-6.106;2023-04-06T10:12:11;0.82;;;0.70;;
58685;SDS011;44465;53.206;-6.106;2023-04-06T10:14:38;0.73;;;0.73;;
58685;SDS011;44465;53.206;-6.106;2023-04-06T10:17:04;0.82;;;0.80;;
58685;SDS011;44465;53.206;-6.106;2023-04-06T10:19:39;1.70;;;0.90;;
58685;SDS011;44465;53.206;-6.106;2023-04-06T10:22:14;1.40;;;0.85;;
58685;SDS011;44465;53.206;-6.106;2023-04-06T10:24:47;1.48;;;1.05;;
58685;SDS011;44465;53.206;-6.106;2023-04-06T10:27:13;1.20;;;0.90;;
58685;SDS011;44465;53.206;-6.106;2023-04-06T10:29:45;1.17;;;0.73;;
58685;SDS011;44465;53.206;-6.106;2023-04-06T10:32:13;1.70;;;0.93;;
58685;SDS011;44465;53.206;-6.106;2023-04-06T10:34:39;0.93;;;0.93;;
58685;SDS011;44465;53.206;-6.106;2023-04-06T10:37:12;0.80;;;0.65;;
58685;SDS011;44465;53.206;-6.106;2023-04-06T10:40:17;1.13;;;0.77;;
58685;SDS011;44465;53.206;-6.106;2023-04-06T10:42:42;0.70;;;0.52;;
58685;SDS011;44465;53.206;-6.106;2023-04-06T10:45:18;1.60;;;0.68;;
58685;SDS011;44465;53.206;-6.106;2023-04-06T10:47:45;0.50;;;0.50;;
58685;SDS011;44465;53.206;-6.106;2023-04-06T10:50:11;1.25;;;0.95;;
58685;SDS011;44465;53.206;-6.106;2023-04-06T10:52:41;1.63;;;0.85;;
58685;SDS011;44465;53.206;-6.106;2023-04-06T10:55:07;1.60;;;0.80;;
58685;SDS011;44465;53.206;-6.106;2023-04-06T10:57:35;1.10;;;0.85;;
58685;SDS011;44465;53.206;-6.106;2023-04-06T11:00:03;1.02;;;0.60;;
58685;SDS011;44465;53.206;-6.106;2023-04-06T11:02:30;0.60;;;0.60;;
58685;SDS011;44465;53.206;-6.106;2023-04-06T11:04:56;3.03;;;0.80;;
58685;SDS011;44465;53.206;-6.106;2023-04-06T11:07:24;0.83;;;0.63;;
58685;SDS011;44465;53.206;-6.106;2023-04-06T11:09:50;1.05;;;0.80;;
58685;SDS011;44465;53.206;-6.106;2023-04-06T11:14:59;1.05;;;0.68;;
58685;SDS011;44465;53.206;-6.106;2023-04-06T11:19:57;1.13;;;0.50;;
58685;SDS011;44465;53.206;-6.106;2023-04-06T11:22:23;0.88;;;0.65;;
58685;SDS011;44465;53.206;-6.106;2023-04-06T11:24:49;1.08;;;0.80;;
58685;SDS011;44465;53.206;-6.106;2023-04-06T11:27:15;1.02;;;0.70;;
58685;SDS011;44465;53.206;-6.106;2023-04-06T11:29:41;1.20;;;0.60;;
58685;SDS011;44465;53.206;-6.106;2023-04-06T11:32:07;1.23;;;0.70;;
58685;SDS011;44465;53.206;-6.106;2023-04-06T11:34:34;1.02;;;0.77;;
58685;SDS011;44465;53.206;-6.106;2023-04-06T11:37:03;4.53;;;0.90;;
58685;SDS011;44465;53.206;-6.106;2023-04-06T11:39:32;1.10;;;0.60;;
58685;SDS011;44465;53.206;-6.106;2023-04-06T11:42:03;0.60;;;0.60;;
58685;SDS011;44465;53.206;-6.106;2023-04-06T11:46:58;1.50;;;0.52;;
58685;SDS011;44465;53.206;-6.106;2023-04-06T11:49:29;1.65;;;0.90;;
58685;SDS011;44465;53.206;-6.106;2023-04-06T11:51:55;0.70;;;0.60;;
58685;SDS011;44465;53.206;-6.106;2023-04-06T11:57:03;0.70;;;0.70;;
58685;SDS011;44465;53.206;-6.106;2023-04-06T11:59:31;1.35;;;0.60;;
58685;SDS011;44465;53.206;-6.106;2023-04-06T12:01:57;0.65;;;0.60;;
58685;SDS011;44465;53.206;-6.106;2023-04-06T12:04:23;0.60;;;0.60;;
58685;SDS011;44465;53.206;-6.106;2023-04-06T12:06:49;1.35;;;0.75;;
58685;SDS011;44465;53.206;-6.106;2023-04-06T12:09:15;0.90;;;0.55;;
58685;SDS011;44465;53.206;-6.106;2023-04-06T12:14:07;1.02;;;0.68;;
58685;SDS011;44465;53.206;-6.106;2023-04-06T12:16:33;0.77;;;0.50;;
58685;SDS011;44465;53.206;-6.106;2023-04-06T12:18:59;1.00;;;0.40;;
58685;SDS011;44465;53.206;-6.106;2023-04-06T12:21:29;0.95;;;0.57;;
58685;SDS011;44465;53.206;-6.106;2023-04-06T12:23:59;0.50;;;0.50;;
58685;SDS011;44465;53.206;-6.106;2023-04-06T12:26:25;1.05;;;0.60;;
58685;SDS011;44465;53.206;-6.106;2023-04-06T12:28:51;1.95;;;0.85;;
58685;SDS011;44465;53.206;-6.106;2023-04-06T12:31:17;0.50;;;0.50;;
58685;SDS011;44465;53.206;-6.106;2023-04-06T12:33:45;0.82;;;0.60;;
58685;SDS011;44465;53.206;-6.106;2023-04-06T12:36:15;0.60;;;0.60;;
58685;SDS011;44465;53.206;-6.106;2023-04-06T12:38:44;2.45;;;0.70;;
58685;SDS011;44465;53.206;-6.106;2023-04-06T12:44:14;0.77;;;0.63;;
58685;SDS011;44465;53.206;-6.106;2023-04-06T12:46:39;0.52;;;0.52;;
58685;SDS011;44465;53.206;-6.106;2023-04-06T12:49:05;0.63;;;0.52;;
58685;SDS011;44465;53.206;-6.106;2023-04-06T12:51:31;1.15;;;0.60;;
58685;SDS011;44465;53.206;-6.106;2023-04-06T12:53:56;1.05;;;0.50;;
58685;SDS011;44465;53.206;-6.106;2023-04-06T12:56:22;1.58;;;0.80;;
58685;SDS011;44465;53.206;-6.106;2023-04-06T12:58:49;0.98;;;0.60;;
58685;SDS011;44465;53.206;-6.106;2023-04-06T13:03:41;1.60;;;0.70;;
58685;SDS011;44465;53.206;-6.106;2023-04-06T13:06:07;1.15;;;0.47;;
58685;SDS011;44465;53.206;-6.106;2023-04-06T13:08:36;0.73;;;0.50;;
58685;SDS011;44465;53.206;-6.106;2023-04-06T13:11:03;0.68;;;0.63;;
58685;SDS011;44465;53.206;-6.106;2023-04-06T13:13:29;1.95;;;0.60;;
58685;SDS011;44465;53.206;-6.106;2023-04-06T13:15:59;0.70;;;0.68;;
58685;SDS011;44465;53.206;-6.106;2023-04-06T13:18:29;0.52;;;0.50;;
58685;SDS011;44465;53.206;-6.106;2023-04-06T13:20:55;1.77;;;0.60;;
58685;SDS011;44465;53.206;-6.106;2023-04-06T13:23:22;0.88;;;0.65;;
58685;SDS011;44465;53.206;-6.106;2023-04-06T13:26:10;1.73;;;0.75;;
58685;SDS011;44465;53.206;-6.106;2023-04-06T13:28:35;0.60;;;0.60;;
58685;SDS011;44465;53.206;-6.106;2023-04-06T13:31:02;1.13;;;0.50;;
58685;SDS011;44465;53.206;-6.106;2023-04-06T13:33:28;0.50;;;0.50;;
58685;SDS011;44465;53.206;-6.106;2023-04-06T13:35:55;0.73;;;0.73;;
58685;SDS011;44465;53.206;-6.106;2023-04-06T13:38:22;0.98;;;0.60;;
58685;SDS011;44465;53.206;-6.106;2023-04-06T13:40:51;1.63;;;0.80;;
58685;SDS011;44465;53.206;-6.106;2023-04-06T13:43:16;0.68;;;0.52;;
58685;SDS011;44465;53.206;-6.106;2023-04-06T13:48:41;0.50;;;0.50;;
58685;SDS011;44465;53.206;-6.106;2023-04-06T13:51:10;0.57;;;0.57;;
58685;SDS011;44465;53.206;-6.106;2023-04-06T13:53:37;1.02;;;0.68;;
58685;SDS011;44465;53.206;-6.106;2023-04-06T13:56:03;2.22;;;0.80;;
58685;SDS011;44465;53.206;-6.106;2023-04-06T13:58:28;1.63;;;0.77;;
58685;SDS011;44465;53.206;-6.106;2023-04-06T14:00:54;0.82;;;0.80;;
58685;SDS011;44465;53.206;-6.106;2023-04-06T14:03:22;0.50;;;0.50;;
58685;SDS011;44465;53.206;-6.106;2023-04-06T14:05:47;0.95;;;0.70;;
58685;SDS011;44465;53.206;-6.106;2023-04-06T14:08:13;1.27;;;0.50;;
58685;SDS011;44465;53.206;-6.106;2023-04-06T14:10:38;0.50;;;0.50;;
58685;SDS011;44465;53.206;-6.106;2023-04-06T14:13:08;1.10;;;0.50;;
58685;SDS011;44465;53.206;-6.106;2023-04-06T14:15:33;1.75;;;0.60;;
58685;SDS011;44465;53.206;-6.106;2023-04-06T14:18:00;0.93;;;0.60;;
58685;SDS011;44465;53.206;-6.106;2023-04-06T14:20:26;1.52;;;0.60;;
58685;SDS011;44465;53.206;-6.106;2023-04-06T14:22:52;0.70;;;0.63;;
58685;SDS011;44465;53.206;-6.106;2023-04-06T14:25:19;0.52;;;0.52;;
58685;SDS011;44465;53.206;-6.106;2023-04-06T14:27:45;0.70;;;0.52;;
58685;SDS011;44465;53.206;-6.106;2023-04-06T14:30:10;0.95;;;0.40;;
58685;SDS011;44465;53.206;-6.106;2023-04-06T14:32:37;0.47;;;0.30;;
58685;SDS011;44465;53.206;-6.106;2023-04-06T14:35:03;0.85;;;0.50;;
58685;SDS011;44465;53.206;-6.106;2023-04-06T14:37:29;0.95;;;0.90;;
58685;SDS011;44465;53.206;-6.106;2023-04-06T14:39:55;0.47;;;0.47;;
58685;SDS011;44465;53.206;-6.106;2023-04-06T14:42:20;0.57;;;0.50;;
58685;SDS011;44465;53.206;-6.106;2023-04-06T14:44:46;1.17;;;0.50;;
58685;SDS011;44465;53.206;-6.106;2023-04-06T14:47:13;0.38;;;0.38;;
58685;SDS011;44465;53.206;-6.106;2023-04-06T14:49:45;0.63;;;0.60;;
58685;SDS011;44465;53.206;-6.106;2023-04-06T14:52:18;1.65;;;0.40;;
58685;SDS011;44465;53.206;-6.106;2023-04-06T14:54:43;1.23;;;0.60;;
58685;SDS011;44465;53.206;-6.106;2023-04-06T14:57:09;0.47;;;0.47;;
58685;SDS011;44465;53.206;-6.106;2023-04-06T14:59:35;0.85;;;0.63;;
58685;SDS011;44465;53.206;-6.106;2023-04-06T15:02:01;0.93;;;0.52;;
58685;SDS011;44465;53.206;-6.106;2023-04-06T15:04:28;0.57;;;0.57;;
58685;SDS011;44465;53.206;-6.106;2023-04-06T15:06:54;0.50;;;0.50;;